KPWA/PWA METAR and TAF weather

Enter ICAO airport designator
Station Type Date Time Source
KPWA METAR 2021/10/24 20:53 UTC NOAA

KPWA 242053Z 32013G17KT 10SM CLR 24/12 A2978 RMK AO2 SLP070 T02390122 53016


Station Type Date Time Source
KPWA Decoded METAR 2021/10/24 20:53 UTC NOAA

WILEY POST, OK, United States (KPWA) 35-32N 97-39W 397M
Oct 24, 2021 - 04:53 PM EDT / 2021.10.24 2053 UTC
Wind: from the NW (320 degrees) at 15 MPH (13 KT) gusting to 20 MPH (17 KT):0
Visibility: 10 mile(s):0
Sky conditions: clear
Temperature: 75.0 F (23.9 C)
Dew Point: 54.0 F (12.2 C)
Relative Humidity: 47%
Pressure (altimeter): 29.78 in. Hg (1008 hPa)
Pressure tendency: 0.05 inches (1.6 hPa) higher than three hours ago
ob: KPWA 242053Z 32013G17KT 10SM CLR 24/12 A2978 RMK AO2 SLP070 T02390122 53016
cycle: 21

Station Type Date Time Source
KPWA TAF UTC NOAA

Error!

Example: see airport list